Inkster, Michigan
Current Conditions -  °F | °C
As of 11:53 PM on Tuesday 25 Nov 2014 (Local Time) from KDTW Reporting Station
Overcast Overcast  
Wind Chill: 30°   Ceiling: 2500
Heat Index: 30°   Visibility: 10mi
Dew Point: 21°   Wind: 3mph
Humidity: 69%   Direction: 220°SW
Pressure: 30.21"   Gusts: NA
Location:  42.3°N, 83.31°W
Report Text: KDTW 260453Z 22003KT 10SM OVC025 M01/M06 A3021 RMK AO2 SLP237 T10111061 400171011
Loading
Personal Weather Stations






























Interactive Weather Map New forecast layout! Learn more

10-Day Weather Forecast

Advertisements
Track Severe Weather on mobile